Архив погоды в Белом

Метеограмма Белый
Вторник, 23 Мая
Время местн. Темп Ветер Видим Явления Облачность нижн/средн/верх Атм. давл. Влжн Точка росы ВНГО R Сост. почвы Tg s
Напр Скр Прв ур.ст ур.м изм
03:00 +8.9° З 2 - 10 км - ясно 740 760 -0.1 80% +5.7° более 2.5 км - - - -
00:00 +12.8° З 2 - 10 км - облачно с прояснениями 740 760 +0.2 60% +5.2° - - - - -
Понедельник, 22 Мая
Время местн. Темп Ветер Видим Явления Облачность нижн/средн/верх Атм. давл. Влжн Точка росы ВНГО R Сост. почвы Tg s
Напр Скр Прв ур.ст ур.м изм
21:00 +15.4° Ю 2 - 10 км - преимущественно облачно 740 759 -0.5 47% +4.1° 1 км 0 - - -
18:00 +18.3° З,С-З 2 - 50 км - облачно с прояснениями 740 759 -1.1 29% -0.2° - - - - -
15:00 +18.5° З 1 - более 50 км - переменная облачность 741 761 -1 30% +0.4° 1.5 км - - - -
12:00 +15.6° С 3 - 50 км - ясно 742 762 -0.2 33% -0.6° более 2.5 км - - - -
09:00 +11.3° С 1 - 50 км - ясно 742 762 +0.3 48% +0.7° более 2.5 км 0 Сухая (без трещин) - -
06:00 +4.6° С 1 - 20 км - ясно 742 763 +0.5 79% +1.2° более 2.5 км - - - -
03:00 +4.6° С-З 2 - 10 км - ясно 742 762 +0.2 79% +1.3° более 2.5 км - - - -
00:00 +8.4° С,С-З 2 - 10 км - ясно 741 762 +0.8 59% +0.9° более 2.5 км - - - -
Воскресенье, 21 Мая
Время местн. Темп Ветер Видим Явления Облачность нижн/средн/верх Атм. давл. Влжн Точка росы ВНГО R Сост. почвы Tg s
Напр Скр Прв ур.ст ур.м изм
21:00 +12.9° С 3 - 10 км - переменная облачность 741 761 +0.8 43% +0.7° более 2.5 км 0 - - -
18:00 +15.6° С 4 - 50 км - ясно 740 760 -0.6 35% +0.4° более 2.5 км - - - -
15:00 +14.1° С,С-В 4 10 более 50 км - облачно с прояснениями 741 760 -0.1 46% +2.8° 1.5 км - - - -
12:00 +11.7° С-В 4 - 50 км - преимущественно облачно 741 761 +1 61% +4.5° 1 км - - - -
09:00 +11.9° В,С-В 5 - 50 км - преимущественно облачно 740 760 +0.6 76% +7.8° 1 км 0 Влажная (без луж) - -
06:00 +11.5° С,С-В 2 - 10 км - преимущественно облачно 739 759 +0.3 86% +9.2° 1 км - - - -
03:00 +12.9° С 1 - 10 км - облачно с прояснениями 739 759 -0.3 91% +11.5° 1 км - - - -
00:00 +14.8° З 1 - 10 км - преимущественно облачно 739 759 0 91% +13.3° 1 км - - - -
Суббота, 20 Мая
Время местн. Темп Ветер Видим Явления Облачность нижн/средн/верх Атм. давл. Влжн Точка росы ВНГО R Сост. почвы Tg s
Напр Скр Прв ур.ст ур.м изм
21:00 +17.4° С,С-З 1 - 10 км небо без изменений {ливневые осадки} преимущественно облачно 739 759 -0.5 73% +12.5° 1 км 4 - - -
18:00 +19° Ю-З 2 - 50 км ливневый дождь облачно с прояснениями 740 759 -0.5 75% +14.4° 600 м - - - -
15:00 +22.8° З 2 - 50 км - преимущественно облачно 740 759 -1.2 39% +8.2° 600 м - - - -
12:00 +22.1° Ю 2 - более 50 км - облачно с прояснениями 741 761 -0.8 36% +6.3° более 2.5 км - - - -
09:00 +18.1° Ю-З 1 - 50 км - преимущественно облачно 742 762 -0.1 45% +5.9° 600 м 0 Сухая (без трещин) - -
06:00 +10.9° Ю-З 1 - 20 км - преимущественно облачно 742 762 -0.5 73% +6.3° - - - - -
03:00 +10.7° Ю 1 - 10 км - преимущественно облачно 743 763 -0.4 66% +4.7° более 2.5 км - - - -
00:00 +14.5° Ю,Ю-В 1 - 10 км - преимущественно облачно 743 763 +0.1 44% +2.5° - - - - -